Time;durP1;ratioP1;P1;durP2;ratioP2;P2;SDS_P1;SDS_P2;PMS_P1;PMS_P2;Temp;Humidity;BMP_temperature;BMP_pressure;BME280_temperature;BME280_humidity;BME280_pressure;Samples;Min_cycle;Max_cycle;Signal;HPM_P1;HPM_P2
2023/03/26 00:00:39;;;;;;;34.25;5.95;;;;;;;8.93;94.65;100658.84;5075681;28;20058;-69
2023/03/26 00:03:05;;;;;;;30.77;4.93;;;;;;;8.92;93.94;100656.19;5076170;28;20041;-70
2023/03/26 00:05:31;;;;;;;31.00;5.05;;;;;;;8.87;94.41;100656.13;5075982;28;20047;-70
2023/03/26 00:07:57;;;;;;;30.00;5.18;;;;;;;8.83;94.33;100650.78;5076325;28;20032;-69
2023/03/26 00:10:25;;;;;;;33.45;4.97;;;;;;;8.81;94.11;100658.66;5075872;28;20492;-69
2023/03/26 00:12:51;;;;;;;20.52;4.75;;;;;;;8.80;93.95;100659.53;5074247;28;20024;-69
2023/03/26 00:15:16;;;;;;;28.30;5.40;;;;;;;8.80;93.62;100654.25;5073432;28;20071;-69
2023/03/26 00:17:45;;;;;;;34.47;5.40;;;;;;;8.74;93.85;100654.19;5055441;28;20477;-69
2023/03/26 00:20:14;;;;;;;28.63;4.32;;;;;;;8.69;94.11;100653.19;5073410;28;20048;-69
2023/03/26 00:22:40;;;;;;;28.75;4.68;;;;;;;8.68;93.90;100659.34;5073239;28;20099;-70
2023/03/26 00:25:06;;;;;;;34.67;5.50;;;;;;;8.62;93.61;100652.25;5055453;28;20024;-70
2023/03/26 00:27:33;;;;;;;28.92;4.82;;;;;;;8.63;93.36;100648.72;5073172;28;20040;-70
2023/03/26 00:29:59;;;;;;;23.73;4.60;;;;;;;8.61;93.36;100647.84;5073245;28;20362;-70
2023/03/26 00:32:27;;;;;;;29.10;4.78;;;;;;;8.60;93.69;100647.78;5073458;28;20028;-70
2023/03/26 00:34:56;;;;;;;30.60;4.70;;;;;;;8.57;93.69;100639.88;5073472;28;20047;-70
2023/03/26 00:37:25;;;;;;;21.17;4.20;;;;;;;8.59;93.71;100636.38;5073051;28;20488;-70
2023/03/26 00:39:52;;;;;;;20.33;4.57;;;;;;;8.55;93.63;100631.03;5073352;28;20020;-70
2023/03/26 00:42:17;;;;;;;25.35;4.93;;;;;;;8.51;93.46;100630.97;5073019;28;20029;-70
2023/03/26 00:44:43;;;;;;;30.08;4.80;;;;;;;8.47;93.23;100626.53;5073154;28;20074;-70
2023/03/26 00:47:08;;;;;;;29.30;4.38;;;;;;;8.47;93.70;100625.66;5073326;28;20381;-70
2023/03/26 00:49:33;;;;;;;27.05;4.70;;;;;;;8.43;93.28;100623.81;5073066;28;20505;-70
2023/03/26 00:52:01;;;;;;;23.85;4.55;;;;;;;8.37;93.25;100626.38;5073003;28;20072;-70
2023/03/26 00:54:27;;;;;;;28.10;4.68;;;;;;;8.33;94.01;100622.78;5072795;28;20024;-70
2023/03/26 00:56:54;;;;;;;25.15;4.53;;;;;;;8.33;94.07;100621.88;5072859;28;20043;-70
2023/03/26 00:59:21;;;;;;;20.80;4.50;;;;;;;8.35;94.33;100620.16;5073175;28;20025;-70
2023/03/26 01:01:53;;;;;;;30.20;4.72;;;;;;;8.29;94.20;100626.22;5073236;28;20532;-70
2023/03/26 01:04:30;;;;;;;29.50;4.97;;;;;;;8.19;95.00;100621.66;5073713;28;20040;-70
2023/03/26 01:07:00;;;;;;;30.35;5.07;;;;;;;8.15;95.11;100617.22;5073401;28;20104;-70
2023/03/26 01:09:32;;;;;;;23.73;4.28;;;;;;;8.13;95.34;100604.00;5072772;28;20492;-70
2023/03/26 01:12:01;;;;;;;25.25;4.68;;;;;;;8.10;95.20;100598.72;5073013;28;20220;-70
2023/03/26 01:14:27;;;;;;;28.00;4.28;;;;;;;8.06;94.99;100589.00;5072849;28;20029;-70
2023/03/26 01:17:12;;;;;;;31.98;4.80;;;;;;;8.02;95.76;100582.78;5072964;28;20086;-69
2023/03/26 01:20:00;;;;;;;30.50;4.50;;;;;;;7.98;95.78;100575.69;5072911;28;20033;-69
2023/03/26 01:22:26;;;;;;;37.05;4.75;;;;;;;7.93;95.92;100582.63;5072800;28;20029;-69
2023/03/26 01:24:54;;;;;;;29.13;4.57;;;;;;;7.91;96.24;100579.06;5072809;28;20090;-70
2023/03/26 01:27:39;;;;;;;21.67;4.68;;;;;;;7.89;96.49;100572.91;5072647;28;20112;-70
2023/03/26 01:30:16;;;;;;;30.20;5.13;;;;;;;7.87;96.31;100566.72;5072667;28;20542;-70
2023/03/26 01:32:59;;;;;;;26.60;4.30;;;;;;;7.90;96.13;100571.16;5072705;28;20036;-69
2023/03/26 01:36:00;;;;;;;23.77;3.92;;;;;;;7.92;95.59;100559.84;5073790;28;20025;-69
2023/03/26 01:38:34;;;;;;;25.27;4.35;;;;;;;7.91;96.19;100550.13;5055319;28;20066;-70
2023/03/26 01:41:11;;;;;;;29.40;4.85;;;;;;;7.93;95.79;100551.06;5072619;28;20029;-69
2023/03/26 01:43:45;;;;;;;22.98;4.60;;;;;;;7.96;95.44;100540.56;5072538;28;20584;-69
2023/03/26 01:46:14;;;;;;;24.77;3.80;;;;;;;7.95;94.88;100545.81;5073091;28;20385;-70
2023/03/26 01:48:42;;;;;;;28.58;4.25;;;;;;;7.94;95.39;100551.94;5072716;28;20085;-70
2023/03/26 01:51:09;;;;;;;24.55;3.88;;;;;;;7.90;95.23;100550.13;5072760;28;20017;-70
2023/03/26 01:53:41;;;;;;;26.48;4.43;;;;;;;7.85;95.79;100547.41;5072217;28;20017;-70
2023/03/26 01:56:17;;;;;;;24.27;3.95;;;;;;;7.85;95.30;100547.41;5072578;28;20039;-70
2023/03/26 01:58:54;;;;;;;22.13;4.45;;;;;;;7.81;95.84;100548.22;5072405;28;20354;-69
2023/03/26 02:01:29;;;;;;;25.02;4.53;;;;;;;7.82;95.40;100539.47;5072647;28;20032;-70
2023/03/26 02:04:29;;;;;;;23.13;3.80;;;;;;;7.82;95.64;100522.81;5072623;28;20112;-69
2023/03/26 02:07:21;;;;;;;19.90;4.65;;;;;;;7.78;95.83;100527.13;5038033;28;20137;-69
2023/03/26 02:09:59;;;;;;;25.02;4.22;;;;;;;7.79;96.38;100521.00;5059319;28;20043;-70
2023/03/26 02:12:26;;;;;;;27.67;4.30;;;;;;;7.77;95.94;100523.63;5076008;28;20404;-69
2023/03/26 02:14:52;;;;;;;24.10;4.70;;;;;;;7.74;96.68;100514.78;5075845;28;20071;-70
2023/03/26 02:17:18;;;;;;;32.00;4.65;;;;;;;7.70;96.89;100510.31;5075554;28;20056;-69
2023/03/26 02:19:43;;;;;;;24.02;4.50;;;;;;;7.69;96.89;100498.03;5057736;28;20170;-70
2023/03/26 02:22:14;;;;;;;21.33;4.15;;;;;;;7.71;96.76;100497.22;5075667;28;20028;-70
2023/03/26 02:24:43;;;;;;;25.60;4.63;;;;;;;7.74;96.48;100493.75;5075464;28;20036;-70
2023/03/26 02:27:11;;;;;;;25.15;4.68;;;;;;;7.76;96.51;100494.66;5057457;28;20033;-70
2023/03/26 02:29:38;;;;;;;19.30;4.15;;;;;;;7.75;95.96;100484.97;5075804;28;20033;-69
2023/03/26 02:32:05;;;;;;;27.63;4.20;;;;;;;7.76;96.69;100485.03;5075717;28;20028;-70
2023/03/26 02:34:30;;;;;;;22.77;4.20;;;;;;;7.75;95.74;100487.63;5075624;28;20029;-69
2023/03/26 02:36:56;;;;;;;21.58;4.15;;;;;;;7.72;96.06;100482.31;5075379;28;20103;-70
2023/03/26 02:39:22;;;;;;;29.75;5.30;;;;;;;7.71;96.33;100483.19;5075474;28;20020;-69
2023/03/26 02:41:48;;;;;;;25.88;4.30;;;;;;;7.69;96.90;100479.63;5057306;28;20021;-70
2023/03/26 02:44:13;;;;;;;28.25;4.30;;;;;;;7.67;96.63;100478.75;5057470;28;20039;-69
2023/03/26 02:46:39;;;;;;;25.35;3.95;;;;;;;7.69;97.23;100474.38;5075408;28;20029;-70
2023/03/26 02:49:05;;;;;;;27.25;4.40;;;;;;;7.67;96.84;100468.22;5075428;28;20363;-70
2023/03/26 02:51:33;;;;;;;24.42;4.15;;;;;;;7.66;96.67;100469.06;5075335;28;20020;-70
2023/03/26 02:54:03;;;;;;;25.58;4.55;;;;;;;7.62;97.14;100465.50;5074764;28;20485;-69
2023/03/26 02:56:28;;;;;;;24.20;4.68;;;;;;;7.65;96.67;100455.03;5074857;28;20393;-70
2023/03/26 02:58:54;;;;;;;20.05;4.10;;;;;;;7.67;96.82;100449.81;5074875;28;20111;-69
2023/03/26 03:01:19;;;;;;;25.02;4.90;;;;;;;7.70;97.16;100448.09;5056916;28;20442;-70
2023/03/26 03:03:47;;;;;;;26.92;4.70;;;;;;;7.71;97.26;100447.25;5075124;28;20032;-70
2023/03/26 03:06:17;;;;;;;25.65;4.80;;;;;;;7.69;96.91;100445.44;5074520;28;20040;-70
2023/03/26 03:08:44;;;;;;;31.35;4.75;;;;;;;7.68;96.73;100436.69;5074996;28;20044;-69
2023/03/26 03:11:25;;;;;;;29.58;5.20;;;;;;;7.69;96.70;100433.19;5074594;28;20099;-70
2023/03/26 03:13:51;;;;;;;20.15;4.68;;;;;;;7.68;97.50;100427.91;5074795;28;20043;-69
2023/03/26 03:16:17;;;;;;;20.27;4.93;;;;;;;7.71;97.46;100433.22;5074767;28;20397;-69
2023/03/26 03:18:42;;;;;;;23.35;4.22;;;;;;;7.71;97.38;100422.72;5074357;28;20052;-69
2023/03/26 03:21:08;;;;;;;24.55;4.13;;;;;;;7.72;97.04;100416.56;5073680;28;20040;-69
2023/03/26 03:23:33;;;;;;;19.55;4.13;;;;;;;7.73;97.16;100413.97;5074296;28;20029;-69
2023/03/26 03:25:58;;;;;;;24.80;4.60;;;;;;;7.73;97.69;100416.59;5074612;28;20040;-69
2023/03/26 03:28:24;;;;;;;20.15;4.13;;;;;;;7.74;96.98;100402.56;5074362;28;20020;-70
2023/03/26 03:30:52;;;;;;;20.15;3.78;;;;;;;7.76;96.61;100400.88;5074433;28;20035;-70
2023/03/26 03:33:20;;;;;;;18.83;4.22;;;;;;;7.77;97.60;100402.63;5074565;28;20080;-69
2023/03/26 03:35:48;;;;;;;22.10;4.20;;;;;;;7.75;97.51;100398.19;5074211;28;20070;-69
2023/03/26 03:38:14;;;;;;;21.33;3.88;;;;;;;7.76;96.87;100398.22;5074156;28;20052;-69
2023/03/26 03:40:40;;;;;;;22.85;4.07;;;;;;;7.81;97.20;100400.06;5074056;28;20017;-70
2023/03/26 03:43:05;;;;;;;25.52;4.50;;;;;;;7.81;96.94;100400.06;5074032;28;20094;-70
2023/03/26 03:45:34;;;;;;;15.45;3.70;;;;;;;7.81;97.90;100398.31;5073976;28;20028;-70
2023/03/26 03:48:00;;;;;;;25.80;4.88;;;;;;;7.83;98.09;100390.41;5073917;28;20481;-71
2023/03/26 03:50:25;;;;;;;20.48;4.03;;;;;;;7.88;98.18;100396.63;5073892;28;20119;-70
2023/03/26 03:52:51;;;;;;;16.52;3.65;;;;;;;7.91;97.42;100392.31;5073839;28;20027;-70
2023/03/26 03:55:17;;;;;;;23.27;3.95;;;;;;;7.89;97.82;100388.78;5073826;28;20107;-71
2023/03/26 03:57:42;;;;;;;12.80;3.47;;;;;;;7.89;97.89;100378.25;5055610;28;20432;-70
2023/03/26 04:00:08;;;;;;;21.33;3.55;;;;;;;7.91;98.65;100379.16;5073986;28;20074;-70
2023/03/26 04:02:34;;;;;;;16.45;3.40;;;;;;;7.90;98.78;100376.50;5066785;28;20028;-70
2023/03/26 04:05:01;;;;;;;19.98;4.03;;;;;;;7.90;98.44;100377.38;5035599;28;20398;-70
2023/03/26 04:07:29;;;;;;;15.38;3.30;;;;;;;7.88;98.70;100367.69;5053903;28;20348;-70
2023/03/26 04:09:55;;;;;;;18.67;3.63;;;;;;;7.90;99.06;100369.50;5053530;28;20485;-70
2023/03/26 04:12:21;;;;;;;20.17;3.63;;;;;;;7.92;99.23;100358.97;5053450;28;20029;-70
2023/03/26 04:14:46;;;;;;;14.77;3.60;;;;;;;7.93;98.88;100358.13;5053535;28;20018;-70
2023/03/26 04:17:14;;;;;;;20.50;3.80;;;;;;;7.91;99.83;100358.09;5035593;28;20032;-71
2023/03/26 04:19:40;;;;;;;16.23;3.13;;;;;;;7.91;99.38;100344.06;5053604;28;20034;-72
2023/03/26 04:22:06;;;;;;;20.30;3.42;;;;;;;7.87;100.00;100339.63;5053361;28;20029;-71
2023/03/26 04:24:39;;;;;;;18.85;3.50;;;;;;;7.85;100.00;100328.22;5053204;28;20025;-71
2023/03/26 04:27:14;;;;;;;17.83;3.30;;;;;;;7.89;100.00;100330.03;5053531;28;20044;-70
2023/03/26 04:29:43;;;;;;;15.35;3.17;;;;;;;7.95;100.00;100324.84;5053362;28;20504;-70
2023/03/26 04:32:28;;;;;;;15.27;3.17;;;;;;;7.97;100.00;100323.13;5052991;28;20025;-69
2023/03/26 04:34:54;;;;;;;13.85;3.20;;;;;;;8.05;100.00;100313.59;5053252;28;20044;-70
2023/03/26 04:37:40;;;;;;;11.65;3.05;;;;;;;8.10;100.00;100303.09;5035255;28;20464;-70
2023/03/26 04:40:12;;;;;;;17.73;3.20;;;;;;;8.14;100.00;100299.66;5052882;28;20098;-70
2023/03/26 04:42:44;;;;;;;16.07;3.50;;;;;;;8.17;100.00;100300.53;5053236;28;20032;-70
2023/03/26 04:45:12;;;;;;;15.10;3.28;;;;;;;8.21;100.00;100297.09;5053139;28;20147;-69
2023/03/26 04:47:38;;;;;;;13.30;2.83;;;;;;;8.25;100.00;100298.00;5035227;28;20024;-70
2023/03/26 04:50:06;;;;;;;14.38;2.88;;;;;;;8.27;100.00;100285.75;5053066;28;20025;-69
2023/03/26 04:52:32;;;;;;;10.95;3.05;;;;;;;8.29;99.89;100284.91;5053099;28;20036;-69
2023/03/26 04:54:58;;;;;;;16.00;3.10;;;;;;;8.29;99.77;100279.63;5034960;28;20040;-69
2023/03/26 04:57:33;;;;;;;15.77;3.55;;;;;;;8.34;100.00;100276.16;5052850;28;20037;-69
2023/03/26 04:59:59;;;;;;;18.60;3.38;;;;;;;8.38;100.00;100272.72;5053094;28;20029;-69
2023/03/26 05:02:25;;;;;;;15.35;3.30;;;;;;;8.37;99.38;100266.59;5052852;28;20493;-69
2023/03/26 05:04:50;;;;;;;17.45;3.65;;;;;;;8.41;99.10;100259.59;5052730;28;20143;-69
2023/03/26 05:07:18;;;;;;;13.98;3.53;;;;;;;8.43;99.71;100247.31;5034842;28;20037;-70
2023/03/26 05:09:44;;;;;;;12.88;3.53;;;;;;;8.44;99.19;100249.13;5052866;28;20031;-69
2023/03/26 05:12:10;;;;;;;13.82;3.17;;;;;;;8.44;98.69;100252.63;5052955;28;20029;-69
2023/03/26 05:14:35;;;;;;;14.45;3.17;;;;;;;8.46;99.13;100252.63;5052721;28;20390;-69
2023/03/26 05:17:09;;;;;;;13.13;3.22;;;;;;;8.45;98.58;100249.13;5052929;28;20045;-69
2023/03/26 05:19:35;;;;;;;12.20;3.25;;;;;;;8.47;98.60;100251.75;5052914;28;20063;-69
2023/03/26 05:22:01;;;;;;;14.52;3.28;;;;;;;8.45;98.59;100235.97;5053002;28;20486;-69
2023/03/26 05:24:27;;;;;;;16.73;3.30;;;;;;;8.48;99.01;100245.66;5052490;28;20045;-69
2023/03/26 05:26:53;;;;;;;13.65;3.25;;;;;;;8.46;98.22;100231.56;5052526;28;20033;-69
2023/03/26 05:29:20;;;;;;;13.30;3.30;;;;;;;8.43;98.38;100232.41;5052653;28;20512;-69
2023/03/26 05:31:47;;;;;;;17.33;3.85;;;;;;;8.39;98.53;100225.34;5052633;28;20108;-69
2023/03/26 05:34:13;;;;;;;15.20;3.55;;;;;;;8.37;99.03;100215.69;5052588;28;20025;-69
2023/03/26 05:36:39;;;;;;;14.05;3.28;;;;;;;8.35;99.09;100207.75;5052554;28;20033;-69
2023/03/26 05:39:04;;;;;;;14.55;3.58;;;;;;;8.34;99.21;100205.97;5034613;28;20029;-68
2023/03/26 05:41:30;;;;;;;14.95;3.20;;;;;;;8.33;98.88;100200.69;5052718;28;20437;-69
2023/03/26 05:43:55;;;;;;;14.30;3.05;;;;;;;8.29;99.00;100210.31;5054831;28;20439;-69
2023/03/26 05:46:22;;;;;;;9.93;3.00;;;;;;;8.28;98.91;100204.16;5056340;28;20028;-69
2023/03/26 05:48:48;;;;;;;18.20;3.40;;;;;;;8.28;99.47;100212.06;5056555;28;20032;-69
2023/03/26 05:51:17;;;;;;;10.90;3.15;;;;;;;8.22;99.80;100203.22;5056205;28;20388;-69
2023/03/26 05:53:42;;;;;;;17.27;3.60;;;;;;;8.20;99.37;100199.69;5038663;28;20052;-69
2023/03/26 05:56:08;;;;;;;12.45;3.30;;;;;;;8.21;99.76;100190.94;5056361;28;20112;-69
2023/03/26 06:01:09;;;;;;;11.20;3.00;;;;;;;8.23;99.69;100187.47;5007883;28;20041;-69
2023/03/26 06:03:41;;;;;;;13.18;3.28;;;;;;;8.24;100.00;100188.34;5016357;28;20046;-69
2023/03/26 06:06:18;;;;;;;13.20;2.97;;;;;;;8.25;100.00;100190.09;4983175;28;20048;-69
2023/03/26 06:08:53;;;;;;;15.55;3.13;;;;;;;8.26;99.88;100181.31;5016247;28;20061;-69
2023/03/26 06:11:19;;;;;;;13.45;3.30;;;;;;;8.26;100.00;100183.94;5016102;28;20076;-69
2023/03/26 06:13:45;;;;;;;16.48;3.22;;;;;;;8.21;100.00;100183.91;5016270;28;20049;-69
2023/03/26 06:16:12;;;;;;;12.57;3.42;;;;;;;8.18;100.00;100186.53;5016190;28;20490;-68
2023/03/26 06:18:38;;;;;;;13.77;3.20;;;;;;;8.20;100.00;100170.75;5016122;28;20025;-69
2023/03/26 06:21:04;;;;;;;11.68;3.03;;;;;;;8.24;100.00;100173.44;5015969;28;20022;-69
2023/03/26 06:23:30;;;;;;;11.48;3.50;;;;;;;8.24;100.00;100165.53;5015996;28;20022;-68
2023/03/26 06:25:56;;;;;;;13.25;3.03;;;;;;;8.29;100.00;100173.47;5015753;28;20117;-69
2023/03/26 06:28:21;;;;;;;12.43;3.28;;;;;;;8.29;100.00;100171.72;5015966;28;20026;-69
2023/03/26 06:30:48;;;;;;;14.20;3.35;;;;;;;8.27;100.00;100157.66;5015808;28;20095;-69
2023/03/26 06:33:13;;;;;;;15.90;6.70;;;;;;;8.27;99.89;100159.41;5015705;28;20096;-69
2023/03/26 06:35:39;;;;;;;13.95;4.40;;;;;;;8.32;100.00;100156.84;5015675;28;20054;-69
2023/03/26 06:38:06;;;;;;;17.80;5.85;;;;;;;8.31;99.98;100160.31;5015836;28;20026;-69
2023/03/26 06:40:32;;;;;;;20.38;4.53;;;;;;;8.32;100.00;100159.47;5015503;28;20026;-69
2023/03/26 06:42:59;;;;;;;13.10;3.50;;;;;;;8.31;100.00;100163.84;5015647;28;20036;-69
2023/03/26 06:45:25;;;;;;;11.35;3.75;;;;;;;8.34;100.00;100162.97;5015494;28;20040;-69
2023/03/26 06:47:54;;;;;;;15.40;3.83;;;;;;;8.34;100.00;100165.59;5015398;28;20022;-69
2023/03/26 06:50:19;;;;;;;15.25;3.30;;;;;;;8.34;99.96;100173.50;5015694;28;20029;-69
2023/03/26 06:52:45;;;;;;;12.27;3.08;;;;;;;8.36;100.00;100166.53;5015602;28;20026;-70
2023/03/26 06:55:11;;;;;;;14.98;3.47;;;;;;;8.36;99.89;100171.78;5014934;28;20023;-69
2023/03/26 06:57:36;;;;;;;14.88;3.58;;;;;;;8.34;99.99;100168.22;5015351;28;20380;-69
2023/03/26 07:00:04;;;;;;;18.13;3.40;;;;;;;8.34;100.00;100170.88;5026522;28;20038;-69
2023/03/26 07:02:29;;;;;;;15.18;3.78;;;;;;;8.32;99.94;100173.50;5035240;28;20060;-69
2023/03/26 07:04:55;;;;;;;13.15;3.15;;;;;;;8.32;100.00;100172.63;5034933;28;20478;-69
2023/03/26 07:07:23;;;;;;;16.73;3.80;;;;;;;8.29;100.00;100161.19;5034879;28;20103;-69
2023/03/26 07:09:49;;;;;;;19.75;4.22;;;;;;;8.28;100.00;100159.41;5034734;28;20394;-68
2023/03/26 07:12:15;;;;;;;14.20;3.30;;;;;;;8.20;100.00;100155.84;5034970;28;20029;-69
2023/03/26 07:14:40;;;;;;;20.30;3.92;;;;;;;8.17;100.00;100157.56;5034829;28;20033;-69
2023/03/26 07:17:06;;;;;;;14.95;3.92;;;;;;;8.18;100.00;100154.97;5034965;28;20044;-68
2023/03/26 07:19:32;;;;;;;12.35;3.30;;;;;;;8.21;100.00;100151.44;5034482;28;20021;-68
2023/03/26 07:21:57;;;;;;;16.00;3.70;;;;;;;8.19;100.00;100148.81;5034683;28;20515;-68
2023/03/26 07:24:23;;;;;;;14.82;3.55;;;;;;;8.16;100.00;100145.28;5034383;28;20502;-68
2023/03/26 07:27:06;;;;;;;9.88;3.55;;;;;;;8.21;100.00;100144.44;5034633;28;20108;-69
2023/03/26 07:29:36;;;;;;;11.63;3.47;;;;;;;8.21;100.00;100143.56;5034893;28;20455;-69
2023/03/26 07:32:07;;;;;;;11.00;3.17;;;;;;;8.26;100.00;100145.38;5034750;28;20029;-69
2023/03/26 07:34:54;;;;;;;12.15;3.80;;;;;;;8.28;100.00;100140.13;5033275;28;20055;-69
2023/03/26 07:37:19;;;;;;;11.43;3.40;;;;;;;8.34;100.00;100137.53;5034399;28;20032;-69
2023/03/26 07:39:59;;;;;;;12.15;3.45;;;;;;;8.37;100.00;100132.34;5034013;28;20402;-69
2023/03/26 07:42:33;;;;;;;16.63;3.88;;;;;;;8.36;100.00;100135.81;5034106;28;20459;-68
2023/03/26 07:45:17;;;;;;;12.93;3.80;;;;;;;8.38;100.00;100134.09;5034200;28;20033;-69
2023/03/26 07:47:43;;;;;;;17.77;3.75;;;;;;;8.38;100.00;100130.56;5034311;28;20033;-69
2023/03/26 07:50:15;;;;;;;9.82;3.40;;;;;;;8.38;100.00;100135.84;5032835;28;20120;-69
2023/03/26 07:52:41;;;;;;;9.15;3.50;;;;;;;8.42;100.00;100125.34;5032736;28;20028;-69
2023/03/26 07:55:11;;;;;;;13.60;3.78;;;;;;;8.42;100.00;100127.97;5033884;28;20038;-68
2023/03/26 07:58:07;;;;;;;13.75;3.80;;;;;;;8.40;100.00;100124.47;5033704;28;20033;-69
2023/03/26 08:01:02;;;;;;;10.43;3.38;;;;;;;8.43;100.00;100126.22;5033079;28;20038;-69
2023/03/26 08:03:50;;;;;;;10.60;3.47;;;;;;;8.46;100.00;100121.88;5022375;28;20037;-69
2023/03/26 08:06:42;;;;;;;10.45;3.60;;;;;;;8.49;100.00;100119.28;5033512;28;20099;-68
2023/03/26 08:09:20;;;;;;;13.75;3.55;;;;;;;8.50;100.00;100123.66;5033606;28;20029;-69
2023/03/26 08:11:52;;;;;;;11.05;3.40;;;;;;;8.49;100.00;100114.00;5033515;28;20479;-69
2023/03/26 08:14:41;;;;;;;11.53;3.13;;;;;;;8.51;100.00;100114.00;5033641;28;20025;-69
2023/03/26 08:17:19;;;;;;;12.55;3.40;;;;;;;8.53;100.00;100115.78;5002834;28;20049;-69
2023/03/26 08:20:15;;;;;;;13.18;3.40;;;;;;;8.58;100.00;100120.22;5033802;28;20079;-69
2023/03/26 08:22:42;;;;;;;10.50;3.58;;;;;;;8.61;100.00;100129.00;5033467;28;20445;-69
2023/03/26 08:25:23;;;;;;;13.68;3.30;;;;;;;8.64;100.00;100122.88;5033243;28;20036;-69
2023/03/26 08:28:42;;;;;;;8.95;3.30;;;;;;;8.64;100.00;100115.84;5014480;28;20041;-68
2023/03/26 08:31:12;;;;;;;9.68;3.10;;;;;;;8.63;100.00;100106.19;5019860;28;20410;-69
2023/03/26 08:33:39;;;;;;;11.90;3.10;;;;;;;8.71;100.00;100109.75;5033657;28;20073;-69
2023/03/26 08:36:06;;;;;;;10.60;3.35;;;;;;;8.70;100.00;100113.28;5033463;28;20030;-68
2023/03/26 08:38:31;;;;;;;13.30;3.20;;;;;;;8.71;100.00;100106.25;5033371;28;20105;-68
2023/03/26 08:41:13;;;;;;;9.85;2.67;;;;;;;8.75;100.00;100108.03;5033166;28;20132;-69
2023/03/26 08:43:48;;;;;;;13.20;3.40;;;;;;;8.80;100.00;100113.31;5033334;28;20070;-69
2023/03/26 08:46:14;;;;;;;12.38;3.10;;;;;;;8.83;100.00;100116.88;5033421;28;20056;-69
2023/03/26 08:49:03;;;;;;;10.52;3.22;;;;;;;8.88;100.00;100111.63;5033006;28;20040;-69
2023/03/26 08:51:50;;;;;;;12.75;4.10;;;;;;;8.89;100.00;100110.75;5033188;28;20036;-69
2023/03/26 08:54:33;;;;;;;19.45;6.07;;;;;;;8.92;100.00;100110.75;5033098;28;20467;-69
2023/03/26 08:57:46;;;;;;;13.98;3.60;;;;;;;8.95;100.00;100110.75;5032893;28;20386;-69
2023/03/26 09:00:11;;;;;;;11.85;4.88;;;;;;;8.98;100.00;100106.41;5018855;28;20045;-69
2023/03/26 09:03:15;;;;;;;19.92;6.80;;;;;;;8.98;100.00;100101.13;5032878;28;20044;-69
2023/03/26 09:06:18;;;;;;;10.15;6.43;;;;;;;8.97;100.00;100104.63;4977931;28;20098;-69
2023/03/26 09:08:58;;;;;;;12.27;4.00;;;;;;;9.00;100.00;100102.03;5032823;28;20494;-69
2023/03/26 09:11:51;;;;;;;9.77;3.08;;;;;;;9.00;100.00;100096.75;5032796;28;20061;-68
2023/03/26 09:14:34;;;;;;;9.38;3.10;;;;;;;8.96;100.00;100092.34;5032888;28;20119;-68
2023/03/26 09:17:26;;;;;;;7.78;2.72;;;;;;;9.01;100.00;100098.50;5033749;28;20033;-69
2023/03/26 09:19:59;;;;;;;9.20;2.95;;;;;;;8.99;100.00;100100.28;5037132;28;20040;-68
2023/03/26 09:22:46;;;;;;;7.18;2.65;;;;;;;8.99;99.66;100095.00;5037074;28;20037;-68
2023/03/26 09:25:54;;;;;;;7.25;2.97;;;;;;;9.05;99.86;100098.53;5036538;28;20029;-68
2023/03/26 09:28:53;;;;;;;8.88;3.30;;;;;;;9.07;100.00;100099.41;5028318;28;20064;-68
2023/03/26 09:31:40;;;;;;;13.45;5.70;;;;;;;9.08;100.00;100093.25;5036761;28;20092;-68
2023/03/26 09:34:20;;;;;;;19.15;8.48;;;;;;;9.09;100.00;100090.66;5036641;28;20029;-69
2023/03/26 09:36:45;;;;;;;14.10;5.95;;;;;;;9.07;99.72;100091.50;5036830;28;20032;-69
2023/03/26 09:39:32;;;;;;;13.10;5.50;;;;;;;9.06;99.82;100089.75;5036426;28;20029;-68
2023/03/26 09:42:22;;;;;;;11.68;5.78;;;;;;;9.06;98.90;100087.13;5036268;28;20541;-68
2023/03/26 09:44:50;;;;;;;9.68;4.47;;;;;;;9.02;97.60;100087.09;5036715;28;20026;-69
2023/03/26 09:47:20;;;;;;;15.38;8.38;;;;;;;8.99;95.33;100089.75;5036576;28;20067;-69
2023/03/26 09:50:14;;;;;;;9.45;4.38;;;;;;;9.02;96.26;100086.22;5036219;28;20042;-68
2023/03/26 09:52:59;;;;;;;9.18;2.70;;;;;;;9.10;97.17;100086.25;5036493;28;20028;-68
2023/03/26 09:55:41;;;;;;;5.85;2.50;;;;;;;9.18;97.31;100082.78;5036282;28;20026;-68
2023/03/26 09:58:46;;;;;;;8.80;3.33;;;;;;;9.22;97.14;100091.59;5034775;28;20433;-68
2023/03/26 10:01:14;;;;;;;6.65;2.58;;;;;;;9.20;96.97;100086.28;5035941;28;20052;-68
2023/03/26 10:04:34;;;;;;;7.85;2.67;;;;;;;9.21;96.44;100097.75;5036065;28;20029;-68
2023/03/26 10:07:09;;;;;;;6.55;3.00;;;;;;;9.20;96.13;100096.81;5035978;28;20057;-70
2023/03/26 10:09:56;;;;;;;7.35;3.10;;;;;;;9.26;96.68;100098.63;5036028;28;20147;-68
2023/03/26 10:12:41;;;;;;;9.80;2.60;;;;;;;9.35;97.85;100103.06;5035465;28;20490;-70
2023/03/26 10:15:22;;;;;;;6.88;2.80;;;;;;;9.42;97.46;100095.19;5036052;28;20160;-69
2023/03/26 10:17:50;;;;;;;6.70;2.60;;;;;;;9.50;96.74;100095.19;5035749;28;20045;-69
2023/03/26 10:20:32;;;;;;;4.95;2.22;;;;;;;9.54;95.23;100096.94;5034384;28;20033;-68
2023/03/26 10:23:20;;;;;;;6.00;2.20;;;;;;;9.58;93.98;100095.22;5035915;28;20105;-68
2023/03/26 10:26:04;;;;;;;6.57;2.20;;;;;;;9.62;94.12;100096.97;5034356;28;20501;-70
2023/03/26 10:28:58;;;;;;;7.82;2.25;;;;;;;9.61;94.60;100092.59;5035005;28;20026;-71
2023/03/26 10:31:29;;;;;;;6.28;2.30;;;;;;;9.57;93.17;100094.34;5035671;28;20132;-71
2023/03/26 10:34:45;;;;;;;7.63;2.83;;;;;;;9.57;94.28;100104.00;5035376;28;20057;-71
2023/03/26 10:37:29;;;;;;;5.97;2.40;;;;;;;9.58;94.43;100101.34;5035284;28;20057;-69
2023/03/26 10:40:16;;;;;;;6.70;2.33;;;;;;;9.63;94.80;100104.88;5034107;28;20029;-70
2023/03/26 10:43:19;;;;;;;6.05;2.53;;;;;;;9.67;93.89;100101.38;5035086;28;20033;-70
2023/03/26 10:45:56;;;;;;;7.25;2.40;;;;;;;9.64;91.53;100111.94;5035416;28;20044;-69
2023/03/26 10:48:33;;;;;;;5.40;2.30;;;;;;;9.59;91.76;100105.75;5035259;28;20129;-71
2023/03/26 10:51:33;;;;;;;4.03;2.15;;;;;;;9.60;92.89;100106.66;5035157;28;20029;-70
2023/03/26 10:54:18;;;;;;;6.97;2.20;;;;;;;9.60;92.32;100111.94;5034963;28;20044;-69
2023/03/26 10:56:48;;;;;;;7.22;2.58;;;;;;;9.54;92.75;100111.00;5034891;28;20103;-69
2023/03/26 10:59:15;;;;;;;6.95;2.25;;;;;;;9.54;92.97;100111.00;5033652;28;20034;-71
2023/03/26 11:02:21;;;;;;;7.00;2.42;;;;;;;9.61;92.96;100113.69;5034939;28;20044;-70
2023/03/26 11:05:18;;;;;;;6.13;2.30;;;;;;;9.53;93.86;100114.53;5034873;28;20033;-71
2023/03/26 11:07:55;;;;;;;5.15;2.20;;;;;;;9.54;94.10;100113.66;5034748;28;20025;-70
2023/03/26 11:10:47;;;;;;;6.55;2.50;;;;;;;9.50;92.41;100114.53;5033517;28;20566;-70
2023/03/26 11:13:59;;;;;;;6.35;2.22;;;;;;;9.54;91.81;100118.94;5033061;28;20034;-71
2023/03/26 11:16:30;;;;;;;6.32;2.20;;;;;;;9.60;91.74;100115.44;4971361;28;20025;-72
2023/03/26 11:19:14;;;;;;;5.63;2.30;;;;;;;9.67;91.37;100122.47;5034607;28;20450;-69
2023/03/26 11:21:52;;;;;;;4.15;2.00;;;;;;;9.71;89.99;100121.63;5016736;28;20034;-69
2023/03/26 11:24:26;;;;;;;5.25;2.10;;;;;;;9.75;91.04;100125.16;5034531;28;20033;-69
2023/03/26 11:27:03;;;;;;;6.07;2.42;;;;;;;9.79;90.84;100124.28;5032474;28;20076;-71
2023/03/26 11:29:41;;;;;;;5.53;2.50;;;;;;;9.81;92.44;100132.19;5034383;28;20033;-70
2023/03/26 11:32:21;;;;;;;5.22;2.50;;;;;;;9.81;91.86;100126.91;5033354;28;20044;-69
2023/03/26 11:35:14;;;;;;;3.28;2.03;;;;;;;9.82;92.25;100137.50;5034415;28;20034;-69
2023/03/26 11:37:43;;;;;;;4.53;2.53;;;;;;;9.80;92.20;100136.59;5029799;28;20037;-68
2023/03/26 11:40:20;;;;;;;6.55;3.63;;;;;;;9.78;93.69;100133.97;5033640;28;20032;-69
2023/03/26 11:42:48;;;;;;;9.75;4.43;;;;;;;9.77;93.42;100136.59;5032925;28;20394;-69
2023/03/26 11:45:20;;;;;;;5.93;2.63;;;;;;;9.71;93.12;100132.16;5034083;28;20478;-69
2023/03/26 11:47:58;;;;;;;5.15;2.60;;;;;;;9.76;94.12;100143.66;5034396;28;20036;-69
2023/03/26 11:50:29;;;;;;;8.00;4.10;;;;;;;9.78;94.56;100143.63;5034237;28;20021;-69
2023/03/26 11:53:10;;;;;;;5.03;2.28;;;;;;;9.79;93.28;100142.75;5034299;28;20415;-69
2023/03/26 11:55:39;;;;;;;4.45;2.20;;;;;;;9.81;93.45;100143.66;5033770;28;20092;-69